sensor_id;sensor_type;location;lat;lon;timestamp;temperature;humidity
1175;DHT22;576;48.418;10.074;2023-11-18T00:01:15;22.80;63.60
1175;DHT22;576;48.418;10.074;2023-11-18T00:03:43;22.80;63.60
1175;DHT22;576;48.418;10.074;2023-11-18T00:06:12;22.80;63.60
1175;DHT22;576;48.418;10.074;2023-11-18T00:08:40;22.80;63.60
1175;DHT22;576;48.418;10.074;2023-11-18T00:11:08;22.80;63.60
1175;DHT22;576;48.418;10.074;2023-11-18T00:13:37;22.70;63.60
1175;DHT22;576;48.418;10.074;2023-11-18T00:16:07;22.70;63.40
1175;DHT22;576;48.418;10.074;2023-11-18T00:18:40;22.70;63.20
1175;DHT22;576;48.418;10.074;2023-11-18T00:21:08;22.70;63.30
1175;DHT22;576;48.418;10.074;2023-11-18T00:23:36;22.70;63.50
1175;DHT22;576;48.418;10.074;2023-11-18T00:26:05;22.70;63.50
1175;DHT22;576;48.418;10.074;2023-11-18T00:28:35;22.70;63.50
1175;DHT22;576;48.418;10.074;2023-11-18T00:31:04;22.70;63.60
1175;DHT22;576;48.418;10.074;2023-11-18T00:33:32;22.70;63.60
1175;DHT22;576;48.418;10.074;2023-11-18T00:36:04;22.70;63.60
1175;DHT22;576;48.418;10.074;2023-11-18T00:38:33;22.60;63.60
1175;DHT22;576;48.418;10.074;2023-11-18T00:41:01;22.60;63.60
1175;DHT22;576;48.418;10.074;2023-11-18T00:43:30;22.60;63.60
1175;DHT22;576;48.418;10.074;2023-11-18T00:45:59;22.60;63.60
1175;DHT22;576;48.418;10.074;2023-11-18T00:48:28;22.60;63.60
1175;DHT22;576;48.418;10.074;2023-11-18T00:50:57;22.60;63.60
1175;DHT22;576;48.418;10.074;2023-11-18T00:53:26;22.60;63.60
1175;DHT22;576;48.418;10.074;2023-11-18T00:55:55;22.60;63.60
1175;DHT22;576;48.418;10.074;2023-11-18T00:58:23;22.50;63.60
1175;DHT22;576;48.418;10.074;2023-11-18T01:00:51;22.50;63.60
1175;DHT22;576;48.418;10.074;2023-11-18T01:03:19;22.50;63.60
1175;DHT22;576;48.418;10.074;2023-11-18T01:05:48;22.50;63.60
1175;DHT22;576;48.418;10.074;2023-11-18T01:08:18;22.50;63.60
1175;DHT22;576;48.418;10.074;2023-11-18T01:10:47;22.50;63.60
1175;DHT22;576;48.418;10.074;2023-11-18T01:13:16;22.50;63.60
1175;DHT22;576;48.418;10.074;2023-11-18T01:15:44;22.50;63.60
1175;DHT22;576;48.418;10.074;2023-11-18T01:18:13;22.50;63.70
1175;DHT22;576;48.418;10.074;2023-11-18T01:20:42;22.50;63.70
1175;DHT22;576;48.418;10.074;2023-11-18T01:23:10;22.50;63.70
1175;DHT22;576;48.418;10.074;2023-11-18T01:25:38;22.50;63.70
1175;DHT22;576;48.418;10.074;2023-11-18T01:28:08;22.50;63.70
1175;DHT22;576;48.418;10.074;2023-11-18T01:30:37;22.40;63.70
1175;DHT22;576;48.418;10.074;2023-11-18T01:33:06;22.50;63.70
1175;DHT22;576;48.418;10.074;2023-11-18T01:35:36;22.40;63.70
1175;DHT22;576;48.418;10.074;2023-11-18T01:38:05;22.40;63.70
1175;DHT22;576;48.418;10.074;2023-11-18T01:40:34;22.40;63.70
1175;DHT22;576;48.418;10.074;2023-11-18T01:43:02;22.40;63.70
1175;DHT22;576;48.418;10.074;2023-11-18T01:45:39;22.40;63.70
1175;DHT22;576;48.418;10.074;2023-11-18T01:48:09;22.40;63.80
1175;DHT22;576;48.418;10.074;2023-11-18T01:50:40;22.40;63.80
1175;DHT22;576;48.418;10.074;2023-11-18T01:53:10;22.40;63.80
1175;DHT22;576;48.418;10.074;2023-11-18T01:55:41;22.40;63.80
1175;DHT22;576;48.418;10.074;2023-11-18T01:58:10;22.30;63.80
1175;DHT22;576;48.418;10.074;2023-11-18T02:00:41;22.30;63.80
1175;DHT22;576;48.418;10.074;2023-11-18T02:03:11;22.30;63.80
1175;DHT22;576;48.418;10.074;2023-11-18T02:05:40;22.30;63.80
1175;DHT22;576;48.418;10.074;2023-11-18T02:08:11;22.30;63.80
1175;DHT22;576;48.418;10.074;2023-11-18T02:10:46;22.30;63.80
1175;DHT22;576;48.418;10.074;2023-11-18T02:13:22;22.30;63.80
1175;DHT22;576;48.418;10.074;2023-11-18T02:15:56;22.30;63.90
1175;DHT22;576;48.418;10.074;2023-11-18T02:18:24;22.30;63.80
1175;DHT22;576;48.418;10.074;2023-11-18T02:20:55;22.30;63.80
1175;DHT22;576;48.418;10.074;2023-11-18T02:23:24;22.30;63.90
1175;DHT22;576;48.418;10.074;2023-11-18T02:25:55;22.30;63.80
1175;DHT22;576;48.418;10.074;2023-11-18T02:28:24;22.20;63.80
1175;DHT22;576;48.418;10.074;2023-11-18T02:30:56;22.20;63.80
1175;DHT22;576;48.418;10.074;2023-11-18T02:33:30;22.20;63.80
1175;DHT22;576;48.418;10.074;2023-11-18T02:36:06;22.20;63.80
1175;DHT22;576;48.418;10.074;2023-11-18T02:38:46;22.20;63.90
1175;DHT22;576;48.418;10.074;2023-11-18T02:41:19;22.20;63.80
1175;DHT22;576;48.418;10.074;2023-11-18T02:43:49;22.20;63.90
1175;DHT22;576;48.418;10.074;2023-11-18T02:46:18;22.20;63.90
1175;DHT22;576;48.418;10.074;2023-11-18T02:48:48;22.20;63.90
1175;DHT22;576;48.418;10.074;2023-11-18T02:51:20;22.20;63.90
1175;DHT22;576;48.418;10.074;2023-11-18T02:53:49;22.20;63.90
1175;DHT22;576;48.418;10.074;2023-11-18T02:56:18;22.10;63.90
1175;DHT22;576;48.418;10.074;2023-11-18T02:58:47;22.10;63.90
1175;DHT22;576;48.418;10.074;2023-11-18T03:01:15;22.10;63.90
1175;DHT22;576;48.418;10.074;2023-11-18T03:03:43;22.10;63.90
1175;DHT22;576;48.418;10.074;2023-11-18T03:06:11;22.10;63.90
1175;DHT22;576;48.418;10.074;2023-11-18T03:08:40;22.10;63.90
1175;DHT22;576;48.418;10.074;2023-11-18T03:11:09;22.10;63.90
1175;DHT22;576;48.418;10.074;2023-11-18T03:13:39;22.10;63.90
1175;DHT22;576;48.418;10.074;2023-11-18T03:16:08;22.10;63.90
1175;DHT22;576;48.418;10.074;2023-11-18T03:18:38;22.10;63.80
1175;DHT22;576;48.418;10.074;2023-11-18T03:21:11;22.10;63.90
1175;DHT22;576;48.418;10.074;2023-11-18T03:23:40;22.10;63.90
1175;DHT22;576;48.418;10.074;2023-11-18T03:26:09;22.00;63.90
1175;DHT22;576;48.418;10.074;2023-11-18T03:28:40;22.10;63.90
1175;DHT22;576;48.418;10.074;2023-11-18T03:31:08;22.10;63.90
1175;DHT22;576;48.418;10.074;2023-11-18T03:33:38;22.00;63.90
1175;DHT22;576;48.418;10.074;2023-11-18T03:36:07;22.00;63.90
1175;DHT22;576;48.418;10.074;2023-11-18T03:38:39;22.00;63.90
1175;DHT22;576;48.418;10.074;2023-11-18T03:41:07;22.00;63.90
1175;DHT22;576;48.418;10.074;2023-11-18T03:43:38;22.00;63.90
1175;DHT22;576;48.418;10.074;2023-11-18T03:46:06;22.00;63.90
1175;DHT22;576;48.418;10.074;2023-11-18T03:48:35;22.00;63.90
1175;DHT22;576;48.418;10.074;2023-11-18T03:51:04;22.00;63.90
1175;DHT22;576;48.418;10.074;2023-11-18T03:53:33;22.00;63.90
1175;DHT22;576;48.418;10.074;2023-11-18T03:56:02;22.00;63.90
1175;DHT22;576;48.418;10.074;2023-11-18T03:58:30;22.00;63.90
1175;DHT22;576;48.418;10.074;2023-11-18T04:01:01;21.90;63.90
1175;DHT22;576;48.418;10.074;2023-11-18T04:03:29;21.90;63.90
1175;DHT22;576;48.418;10.074;2023-11-18T04:05:58;21.90;63.90
1175;DHT22;576;48.418;10.074;2023-11-18T04:08:27;21.90;63.90
1175;DHT22;576;48.418;10.074;2023-11-18T04:10:55;21.90;63.90
1175;DHT22;576;48.418;10.074;2023-11-18T04:13:23;21.90;63.90
1175;DHT22;576;48.418;10.074;2023-11-18T04:15:51;21.90;63.90
1175;DHT22;576;48.418;10.074;2023-11-18T04:18:21;21.90;63.90
1175;DHT22;576;48.418;10.074;2023-11-18T04:20:50;21.90;63.90
1175;DHT22;576;48.418;10.074;2023-11-18T04:23:18;21.90;63.80
1175;DHT22;576;48.418;10.074;2023-11-18T04:25:46;21.90;63.80
1175;DHT22;576;48.418;10.074;2023-11-18T04:28:15;21.90;63.80
1175;DHT22;576;48.418;10.074;2023-11-18T04:30:43;21.90;63.80
1175;DHT22;576;48.418;10.074;2023-11-18T04:33:11;21.90;63.80
1175;DHT22;576;48.418;10.074;2023-11-18T04:35:42;21.90;63.80
1175;DHT22;576;48.418;10.074;2023-11-18T04:38:10;21.90;63.80
1175;DHT22;576;48.418;10.074;2023-11-18T04:40:38;21.90;63.80
1175;DHT22;576;48.418;10.074;2023-11-18T04:43:08;21.90;63.80
1175;DHT22;576;48.418;10.074;2023-11-18T04:45:37;21.90;63.80
1175;DHT22;576;48.418;10.074;2023-11-18T04:48:06;21.90;63.80
1175;DHT22;576;48.418;10.074;2023-11-18T04:50:35;21.90;63.80
1175;DHT22;576;48.418;10.074;2023-11-18T04:53:04;21.90;63.80
1175;DHT22;576;48.418;10.074;2023-11-18T04:55:35;21.80;63.80
1175;DHT22;576;48.418;10.074;2023-11-18T04:58:03;21.80;63.80
1175;DHT22;576;48.418;10.074;2023-11-18T05:00:33;21.80;63.90
1175;DHT22;576;48.418;10.074;2023-11-18T05:03:01;21.90;63.90
1175;DHT22;576;48.418;10.074;2023-11-18T05:05:30;21.80;63.90
1175;DHT22;576;48.418;10.074;2023-11-18T05:07:59;21.90;63.90
1175;DHT22;576;48.418;10.074;2023-11-18T05:10:28;21.90;63.90
1175;DHT22;576;48.418;10.074;2023-11-18T05:12:57;21.90;63.90
1175;DHT22;576;48.418;10.074;2023-11-18T05:15:25;21.90;63.90
1175;DHT22;576;48.418;10.074;2023-11-18T05:17:54;21.90;63.90
1175;DHT22;576;48.418;10.074;2023-11-18T05:20:22;22.00;63.90
1175;DHT22;576;48.418;10.074;2023-11-18T05:22:51;22.00;63.80
1175;DHT22;576;48.418;10.074;2023-11-18T05:25:19;22.00;63.80
1175;DHT22;576;48.418;10.074;2023-11-18T05:27:49;22.00;63.80
1175;DHT22;576;48.418;10.074;2023-11-18T05:30:18;22.00;63.80
1175;DHT22;576;48.418;10.074;2023-11-18T05:32:46;22.10;63.80
1175;DHT22;576;48.418;10.074;2023-11-18T05:35:15;22.10;63.80
1175;DHT22;576;48.418;10.074;2023-11-18T05:37:43;22.10;63.70
1175;DHT22;576;48.418;10.074;2023-11-18T05:40:11;22.20;63.70
1175;DHT22;576;48.418;10.074;2023-11-18T05:42:42;22.20;63.70
1175;DHT22;576;48.418;10.074;2023-11-18T05:45:14;22.20;63.70
1175;DHT22;576;48.418;10.074;2023-11-18T05:47:55;22.20;63.40
1175;DHT22;576;48.418;10.074;2023-11-18T05:50:24;22.20;63.70
1175;DHT22;576;48.418;10.074;2023-11-18T05:52:54;22.30;63.60
1175;DHT22;576;48.418;10.074;2023-11-18T05:55:23;22.30;63.60
1175;DHT22;576;48.418;10.074;2023-11-18T05:57:51;22.30;63.60
1175;DHT22;576;48.418;10.074;2023-11-18T06:00:20;22.40;63.50
1175;DHT22;576;48.418;10.074;2023-11-18T06:03:01;22.40;63.50
1175;DHT22;576;48.418;10.074;2023-11-18T06:05:30;22.40;63.50
1175;DHT22;576;48.418;10.074;2023-11-18T06:08:02;22.40;63.30
1175;DHT22;576;48.418;10.074;2023-11-18T06:10:31;22.40;63.30
1175;DHT22;576;48.418;10.074;2023-11-18T06:13:00;22.40;63.30
1175;DHT22;576;48.418;10.074;2023-11-18T06:15:32;22.40;63.20
1175;DHT22;576;48.418;10.074;2023-11-18T06:18:02;22.40;63.20
1175;DHT22;576;48.418;10.074;2023-11-18T06:20:34;22.40;63.20
1175;DHT22;576;48.418;10.074;2023-11-18T06:23:03;22.40;63.20
1175;DHT22;576;48.418;10.074;2023-11-18T06:25:31;22.50;63.10
1175;DHT22;576;48.418;10.074;2023-11-18T06:28:00;22.50;63.10
1175;DHT22;576;48.418;10.074;2023-11-18T06:30:32;22.40;63.10
1175;DHT22;576;48.418;10.074;2023-11-18T06:33:00;22.40;63.10
1175;DHT22;576;48.418;10.074;2023-11-18T06:35:29;22.40;63.10
1175;DHT22;576;48.418;10.074;2023-11-18T06:37:58;22.50;63.10
1175;DHT22;576;48.418;10.074;2023-11-18T06:40:26;22.50;63.10
1175;DHT22;576;48.418;10.074;2023-11-18T06:42:54;22.50;63.10
1175;DHT22;576;48.418;10.074;2023-11-18T06:45:28;22.50;63.10
1175;DHT22;576;48.418;10.074;2023-11-18T06:48:00;22.50;63.10
1175;DHT22;576;48.418;10.074;2023-11-18T06:50:28;22.40;63.10
1175;DHT22;576;48.418;10.074;2023-11-18T06:52:56;22.50;63.10
1175;DHT22;576;48.418;10.074;2023-11-18T06:55:25;22.50;63.10
1175;DHT22;576;48.418;10.074;2023-11-18T06:57:54;22.50;63.10
1175;DHT22;576;48.418;10.074;2023-11-18T07:00:23;22.50;63.10
1175;DHT22;576;48.418;10.074;2023-11-18T07:02:55;22.50;63.10
1175;DHT22;576;48.418;10.074;2023-11-18T07:05:26;22.50;63.10
1175;DHT22;576;48.418;10.074;2023-11-18T07:07:54;22.50;63.10
1175;DHT22;576;48.418;10.074;2023-11-18T07:10:22;22.50;63.10
1175;DHT22;576;48.418;10.074;2023-11-18T07:12:52;22.50;63.10
1175;DHT22;576;48.418;10.074;2023-11-18T07:15:20;22.50;63.10
1175;DHT22;576;48.418;10.074;2023-11-18T07:17:48;22.50;63.10
1175;DHT22;576;48.418;10.074;2023-11-18T07:20:22;22.50;63.10
1175;DHT22;576;48.418;10.074;2023-11-18T07:22:52;22.50;63.10
1175;DHT22;576;48.418;10.074;2023-11-18T07:25:21;22.50;63.20
1175;DHT22;576;48.418;10.074;2023-11-18T07:27:49;22.50;63.20
1175;DHT22;576;48.418;10.074;2023-11-18T07:30:18;22.50;63.20
1175;DHT22;576;48.418;10.074;2023-11-18T07:32:47;22.50;63.20
1175;DHT22;576;48.418;10.074;2023-11-18T07:35:16;22.60;63.20
1175;DHT22;576;48.418;10.074;2023-11-18T07:37:44;22.60;63.20
1175;DHT22;576;48.418;10.074;2023-11-18T07:40:14;22.60;63.10
1175;DHT22;576;48.418;10.074;2023-11-18T07:42:49;22.60;63.10
1175;DHT22;576;48.418;10.074;2023-11-18T07:45:17;22.60;63.00
1175;DHT22;576;48.418;10.074;2023-11-18T07:47:45;22.70;63.00
1175;DHT22;576;48.418;10.074;2023-11-18T07:50:15;22.70;63.00
1175;DHT22;576;48.418;10.074;2023-11-18T07:52:44;22.70;62.90
1175;DHT22;576;48.418;10.074;2023-11-18T07:55:14;22.70;62.90
1175;DHT22;576;48.418;10.074;2023-11-18T07:57:42;22.70;62.90
1175;DHT22;576;48.418;10.074;2023-11-18T08:00:12;22.70;62.80
1175;DHT22;576;48.418;10.074;2023-11-18T08:02:42;22.70;62.80
1175;DHT22;576;48.418;10.074;2023-11-18T08:05:11;22.70;62.80
1175;DHT22;576;48.418;10.074;2023-11-18T08:07:42;22.70;62.80
1175;DHT22;576;48.418;10.074;2023-11-18T08:10:14;22.70;62.80
1175;DHT22;576;48.418;10.074;2023-11-18T08:12:46;22.70;61.90
1175;DHT22;576;48.418;10.074;2023-11-18T08:15:15;22.70;62.00
1175;DHT22;576;48.418;10.074;2023-11-18T08:17:43;22.70;61.70
1175;DHT22;576;48.418;10.074;2023-11-18T08:20:11;22.80;62.40
1175;DHT22;576;48.418;10.074;2023-11-18T08:22:42;22.80;62.50
1175;DHT22;576;48.418;10.074;2023-11-18T08:25:12;22.80;62.50
1175;DHT22;576;48.418;10.074;2023-11-18T08:27:43;22.80;62.40
1175;DHT22;576;48.418;10.074;2023-11-18T08:30:13;22.80;62.40
1175;DHT22;576;48.418;10.074;2023-11-18T08:32:42;22.80;62.30
1175;DHT22;576;48.418;10.074;2023-11-18T08:35:12;22.80;62.40
1175;DHT22;576;48.418;10.074;2023-11-18T08:37:42;22.80;62.30
1175;DHT22;576;48.418;10.074;2023-11-18T08:40:12;22.80;62.30
1175;DHT22;576;48.418;10.074;2023-11-18T08:42:45;22.80;61.30
1175;DHT22;576;48.418;10.074;2023-11-18T08:45:17;22.80;61.90
1175;DHT22;576;48.418;10.074;2023-11-18T08:47:47;22.80;61.80
1175;DHT22;576;48.418;10.074;2023-11-18T08:50:16;22.80;62.00
1175;DHT22;576;48.418;10.074;2023-11-18T08:52:45;22.80;62.20
1175;DHT22;576;48.418;10.074;2023-11-18T08:55:15;22.80;62.40
1175;DHT22;576;48.418;10.074;2023-11-18T08:57:49;22.80;62.30
1175;DHT22;576;48.418;10.074;2023-11-18T09:00:26;22.70;62.40
1175;DHT22;576;48.418;10.074;2023-11-18T09:03:13;22.80;61.40
1175;DHT22;576;48.418;10.074;2023-11-18T09:05:55;22.80;61.10
1175;DHT22;576;48.418;10.074;2023-11-18T09:08:27;22.80;61.20
1175;DHT22;576;48.418;10.074;2023-11-18T09:10:58;22.80;62.30
1175;DHT22;576;48.418;10.074;2023-11-18T09:13:28;22.80;62.50
1175;DHT22;576;48.418;10.074;2023-11-18T09:15:57;22.80;62.60
1175;DHT22;576;48.418;10.074;2023-11-18T09:18:27;22.80;61.80
1175;DHT22;576;48.418;10.074;2023-11-18T09:20:57;22.80;62.20
1175;DHT22;576;48.418;10.074;2023-11-18T09:23:26;22.80;62.60
1175;DHT22;576;48.418;10.074;2023-11-18T09:25:55;22.80;62.60
1175;DHT22;576;48.418;10.074;2023-11-18T09:28:24;22.80;61.90
1175;DHT22;576;48.418;10.074;2023-11-18T09:30:57;22.80;61.90
1175;DHT22;576;48.418;10.074;2023-11-18T09:33:26;22.80;62.50
1175;DHT22;576;48.418;10.074;2023-11-18T09:36:00;22.80;61.80
1175;DHT22;576;48.418;10.074;2023-11-18T09:38:29;22.90;62.30
1175;DHT22;576;48.418;10.074;2023-11-18T09:40:58;22.80;62.30
1175;DHT22;576;48.418;10.074;2023-11-18T09:43:30;22.80;62.00
1175;DHT22;576;48.418;10.074;2023-11-18T09:46:04;22.80;61.60
1175;DHT22;576;48.418;10.074;2023-11-18T09:48:43;22.80;62.10
1175;DHT22;576;48.418;10.074;2023-11-18T09:51:20;22.80;62.50
1175;DHT22;576;48.418;10.074;2023-11-18T09:53:50;22.80;62.50
1175;DHT22;576;48.418;10.074;2023-11-18T09:56:24;22.80;62.40
1175;DHT22;576;48.418;10.074;2023-11-18T09:59:04;22.80;62.50
1175;DHT22;576;48.418;10.074;2023-11-18T10:01:38;22.80;62.50
1175;DHT22;576;48.418;10.074;2023-11-18T10:04:10;22.80;62.60
1175;DHT22;576;48.418;10.074;2023-11-18T10:06:39;22.80;62.80
1175;DHT22;576;48.418;10.074;2023-11-18T10:09:11;22.80;62.10
1175;DHT22;576;48.418;10.074;2023-11-18T10:11:47;22.80;61.90
1175;DHT22;576;48.418;10.074;2023-11-18T10:14:15;22.80;61.70
1175;DHT22;576;48.418;10.074;2023-11-18T10:16:45;22.80;62.20
1175;DHT22;576;48.418;10.074;2023-11-18T10:19:15;22.90;62.10
1175;DHT22;576;48.418;10.074;2023-11-18T10:21:45;22.90;61.80
1175;DHT22;576;48.418;10.074;2023-11-18T10:24:16;22.90;62.30
1175;DHT22;576;48.418;10.074;2023-11-18T10:26:55;22.90;62.10
1175;DHT22;576;48.418;10.074;2023-11-18T10:29:25;22.90;62.20
1175;DHT22;576;48.418;10.074;2023-11-18T10:32:07;22.90;61.90
1175;DHT22;576;48.418;10.074;2023-11-18T10:34:37;23.00;62.00
1175;DHT22;576;48.418;10.074;2023-11-18T10:37:06;23.00;61.60
1175;DHT22;576;48.418;10.074;2023-11-18T10:39:38;23.00;61.90
1175;DHT22;576;48.418;10.074;2023-11-18T10:42:06;23.10;61.90
1175;DHT22;576;48.418;10.074;2023-11-18T10:44:35;23.10;61.80
1175;DHT22;576;48.418;10.074;2023-11-18T10:47:03;23.10;61.80
1175;DHT22;576;48.418;10.074;2023-11-18T10:49:33;23.10;61.70
1175;DHT22;576;48.418;10.074;2023-11-18T10:52:05;23.20;61.50
1175;DHT22;576;48.418;10.074;2023-11-18T10:54:36;23.30;61.00
1175;DHT22;576;48.418;10.074;2023-11-18T10:57:05;23.30;61.20
1175;DHT22;576;48.418;10.074;2023-11-18T10:59:36;23.30;60.90
1175;DHT22;576;48.418;10.074;2023-11-18T11:02:24;23.30;61.00
1175;DHT22;576;48.418;10.074;2023-11-18T11:04:54;23.30;61.00
1175;DHT22;576;48.418;10.074;2023-11-18T11:07:24;23.30;61.20
1175;DHT22;576;48.418;10.074;2023-11-18T11:09:53;23.30;60.90
1175;DHT22;576;48.418;10.074;2023-11-18T11:12:25;23.30;60.50
1175;DHT22;576;48.418;10.074;2023-11-18T11:15:00;23.30;60.80
1175;DHT22;576;48.418;10.074;2023-11-18T11:17:31;23.30;60.40
1175;DHT22;576;48.418;10.074;2023-11-18T11:20:08;23.20;60.70
1175;DHT22;576;48.418;10.074;2023-11-18T11:22:56;23.20;60.60
1175;DHT22;576;48.418;10.074;2023-11-18T11:25:41;23.20;60.80
1175;DHT22;576;48.418;10.074;2023-11-18T11:28:17;23.20;61.20
1175;DHT22;576;48.418;10.074;2023-11-18T11:30:55;23.20;61.40
1175;DHT22;576;48.418;10.074;2023-11-18T11:33:31;23.20;61.10
1175;DHT22;576;48.418;10.074;2023-11-18T11:36:13;23.20;60.80
1175;DHT22;576;48.418;10.074;2023-11-18T11:38:52;23.10;61.30
1175;DHT22;576;48.418;10.074;2023-11-18T11:41:23;23.10;61.30
1175;DHT22;576;48.418;10.074;2023-11-18T11:43:55;23.10;61.40
1175;DHT22;576;48.418;10.074;2023-11-18T11:46:28;23.10;61.30
1175;DHT22;576;48.418;10.074;2023-11-18T11:49:01;23.10;61.30
1175;DHT22;576;48.418;10.074;2023-11-18T11:51:42;23.10;61.30
1175;DHT22;576;48.418;10.074;2023-11-18T11:54:20;23.10;61.30
1175;DHT22;576;48.418;10.074;2023-11-18T11:56:49;23.10;61.30
1175;DHT22;576;48.418;10.074;2023-11-18T11:59:35;23.10;61.20
1175;DHT22;576;48.418;10.074;2023-11-18T12:02:04;23.10;61.10
1175;DHT22;576;48.418;10.074;2023-11-18T12:04:35;23.10;61.30
1175;DHT22;576;48.418;10.074;2023-11-18T12:07:08;23.10;61.30
1175;DHT22;576;48.418;10.074;2023-11-18T12:09:46;23.10;60.70
1175;DHT22;576;48.418;10.074;2023-11-18T12:12:22;23.10;60.90
1175;DHT22;576;48.418;10.074;2023-11-18T12:14:54;23.00;61.20
1175;DHT22;576;48.418;10.074;2023-11-18T12:17:24;23.00;61.10
1175;DHT22;576;48.418;10.074;2023-11-18T12:19:59;23.00;61.00
1175;DHT22;576;48.418;10.074;2023-11-18T12:23:04;23.00;61.10
1175;DHT22;576;48.418;10.074;2023-11-18T12:25:41;23.00;60.80
1175;DHT22;576;48.418;10.074;2023-11-18T12:28:14;23.00;61.10
1175;DHT22;576;48.418;10.074;2023-11-18T12:30:44;23.00;61.20
1175;DHT22;576;48.418;10.074;2023-11-18T12:33:24;23.00;61.30
1175;DHT22;576;48.418;10.074;2023-11-18T12:36:40;23.00;61.40
1175;DHT22;576;48.418;10.074;2023-11-18T12:45:43;23.00;60.70
1175;DHT22;576;48.418;10.074;2023-11-18T12:48:14;23.00;61.40
1175;DHT22;576;48.418;10.074;2023-11-18T12:50:43;23.00;61.40
1175;DHT22;576;48.418;10.074;2023-11-18T12:53:13;23.00;61.10
1175;DHT22;576;48.418;10.074;2023-11-18T12:55:46;23.00;61.50
1175;DHT22;576;48.418;10.074;2023-11-18T12:58:18;23.00;61.50
1175;DHT22;576;48.418;10.074;2023-11-18T13:00:46;23.00;61.50
1175;DHT22;576;48.418;10.074;2023-11-18T13:03:16;23.00;61.40
1175;DHT22;576;48.418;10.074;2023-11-18T13:05:45;23.00;61.50
1175;DHT22;576;48.418;10.074;2023-11-18T13:08:13;23.00;61.50
1175;DHT22;576;48.418;10.074;2023-11-18T13:10:43;23.00;61.50
1175;DHT22;576;48.418;10.074;2023-11-18T13:13:11;23.00;61.50
1175;DHT22;576;48.418;10.074;2023-11-18T13:15:46;23.00;61.50
1175;DHT22;576;48.418;10.074;2023-11-18T13:18:17;23.00;61.50
1175;DHT22;576;48.418;10.074;2023-11-18T13:20:56;23.00;61.50
1175;DHT22;576;48.418;10.074;2023-11-18T13:23:25;23.00;61.50
1175;DHT22;576;48.418;10.074;2023-11-18T13:25:57;23.00;61.50
1175;DHT22;576;48.418;10.074;2023-11-18T13:28:27;23.00;61.50
1175;DHT22;576;48.418;10.074;2023-11-18T13:30:57;23.00;61.50
1175;DHT22;576;48.418;10.074;2023-11-18T13:33:25;23.00;61.50
1175;DHT22;576;48.418;10.074;2023-11-18T13:35:54;23.00;61.40
1175;DHT22;576;48.418;10.074;2023-11-18T13:38:22;22.90;61.60
1175;DHT22;576;48.418;10.074;2023-11-18T13:40:51;22.90;61.60
1175;DHT22;576;48.418;10.074;2023-11-18T13:43:19;22.90;61.70
1175;DHT22;576;48.418;10.074;2023-11-18T13:45:52;22.90;61.70
1175;DHT22;576;48.418;10.074;2023-11-18T13:48:22;22.90;61.80
1175;DHT22;576;48.418;10.074;2023-11-18T13:50:52;22.90;61.80
1175;DHT22;576;48.418;10.074;2023-11-18T13:53:20;22.90;61.80
1175;DHT22;576;48.418;10.074;2023-11-18T13:55:49;22.90;61.70
1175;DHT22;576;48.418;10.074;2023-11-18T13:58:17;22.90;61.70
1175;DHT22;576;48.418;10.074;2023-11-18T14:00:47;22.90;61.70
1175;DHT22;576;48.418;10.074;2023-11-18T14:03:15;22.90;61.70
1175;DHT22;576;48.418;10.074;2023-11-18T14:05:45;22.90;61.60
1175;DHT22;576;48.418;10.074;2023-11-18T14:08:17;22.90;61.70
1175;DHT22;576;48.418;10.074;2023-11-18T14:10:47;22.90;61.70
1175;DHT22;576;48.418;10.074;2023-11-18T14:13:29;22.90;61.60
1175;DHT22;576;48.418;10.074;2023-11-18T14:15:58;22.90;61.60
1175;DHT22;576;48.418;10.074;2023-11-18T14:18:27;22.90;61.60
1175;DHT22;576;48.418;10.074;2023-11-18T14:20:57;22.90;61.60
1175;DHT22;576;48.418;10.074;2023-11-18T14:23:28;22.90;61.60
1175;DHT22;576;48.418;10.074;2023-11-18T14:25:56;22.90;61.70
1175;DHT22;576;48.418;10.074;2023-11-18T14:28:25;22.90;61.70
1175;DHT22;576;48.418;10.074;2023-11-18T14:30:54;22.90;61.70
1175;DHT22;576;48.418;10.074;2023-11-18T14:33:22;22.90;61.70
1175;DHT22;576;48.418;10.074;2023-11-18T14:35:51;22.90;61.80
1175;DHT22;576;48.418;10.074;2023-11-18T14:38:22;22.90;61.80
1175;DHT22;576;48.418;10.074;2023-11-18T14:40:50;22.80;61.80
1175;DHT22;576;48.418;10.074;2023-11-18T14:43:20;22.80;61.80
1175;DHT22;576;48.418;10.074;2023-11-18T14:45:49;22.80;61.80
1175;DHT22;576;48.418;10.074;2023-11-18T14:48:17;22.80;61.80
1175;DHT22;576;48.418;10.074;2023-11-18T14:50:45;22.80;61.90
1175;DHT22;576;48.418;10.074;2023-11-18T14:53:13;22.80;62.00
1175;DHT22;576;48.418;10.074;2023-11-18T14:55:43;22.90;62.00
1175;DHT22;576;48.418;10.074;2023-11-18T14:58:12;22.90;62.00
1175;DHT22;576;48.418;10.074;2023-11-18T15:00:40;22.90;62.00
1175;DHT22;576;48.418;10.074;2023-11-18T15:03:09;22.90;62.00
1175;DHT22;576;48.418;10.074;2023-11-18T15:05:38;22.90;62.00
1175;DHT22;576;48.418;10.074;2023-11-18T15:08:06;22.90;62.00
1175;DHT22;576;48.418;10.074;2023-11-18T15:10:36;22.90;62.00
1175;DHT22;576;48.418;10.074;2023-11-18T15:13:08;22.90;61.90
1175;DHT22;576;48.418;10.074;2023-11-18T15:15:42;22.90;61.90
1175;DHT22;576;48.418;10.074;2023-11-18T15:18:14;22.90;61.90
1175;DHT22;576;48.418;10.074;2023-11-18T15:20:45;22.90;61.90
1175;DHT22;576;48.418;10.074;2023-11-18T15:23:15;22.90;61.90
1175;DHT22;576;48.418;10.074;2023-11-18T15:25:45;22.90;61.90
1175;DHT22;576;48.418;10.074;2023-11-18T15:28:15;22.90;61.90
1175;DHT22;576;48.418;10.074;2023-11-18T15:30:44;22.90;61.90
1175;DHT22;576;48.418;10.074;2023-11-18T15:33:12;22.90;61.90
1175;DHT22;576;48.418;10.074;2023-11-18T15:35:42;22.90;61.90
1175;DHT22;576;48.418;10.074;2023-11-18T15:38:13;22.90;61.90
1175;DHT22;576;48.418;10.074;2023-11-18T15:40:47;22.90;62.00
1175;DHT22;576;48.418;10.074;2023-11-18T15:43:18;22.90;62.00
1175;DHT22;576;48.418;10.074;2023-11-18T15:45:47;22.90;62.00
1175;DHT22;576;48.418;10.074;2023-11-18T15:48:15;22.90;62.00
1175;DHT22;576;48.418;10.074;2023-11-18T15:50:44;22.90;62.00
1175;DHT22;576;48.418;10.074;2023-11-18T15:53:14;22.90;62.00
1175;DHT22;576;48.418;10.074;2023-11-18T15:55:43;22.90;62.00
1175;DHT22;576;48.418;10.074;2023-11-18T15:58:15;22.90;62.00
1175;DHT22;576;48.418;10.074;2023-11-18T16:00:47;22.90;61.90
1175;DHT22;576;48.418;10.074;2023-11-18T16:03:19;22.90;61.90
1175;DHT22;576;48.418;10.074;2023-11-18T16:05:47;22.90;62.00
1175;DHT22;576;48.418;10.074;2023-11-18T16:08:16;22.90;62.00
1175;DHT22;576;48.418;10.074;2023-11-18T16:10:45;22.90;62.00
1175;DHT22;576;48.418;10.074;2023-11-18T16:13:13;22.80;62.00
1175;DHT22;576;48.418;10.074;2023-11-18T16:15:41;22.80;62.00
1175;DHT22;576;48.418;10.074;2023-11-18T16:18:11;22.90;62.10
1175;DHT22;576;48.418;10.074;2023-11-18T16:20:40;22.90;62.10
1175;DHT22;576;48.418;10.074;2023-11-18T16:23:10;22.90;62.10
1175;DHT22;576;48.418;10.074;2023-11-18T16:25:38;22.90;62.00
1175;DHT22;576;48.418;10.074;2023-11-18T16:28:07;22.90;62.00
1175;DHT22;576;48.418;10.074;2023-11-18T16:30:35;22.90;62.00